Time;durP1;ratioP1;P1;durP2;ratioP2;P2;SDS_P1;SDS_P2;PMS_P1;PMS_P2;Temp;Humidity;BMP_temperature;BMP_pressure;BME280_temperature;BME280_humidity;BME280_pressure;Samples;Min_cycle;Max_cycle;Signal;HPM_P1;HPM_P2
2024/04/12 00:01:44;;;;;;;4.57;2.60;;;18.80;78.70;;;;;;5382737;26;20012;-75
2024/04/12 00:04:18;;;;;;;9.27;2.63;;;18.70;79.00;;;;;;5382215;26;20000;-73
2024/04/12 00:06:59;;;;;;;6.53;2.40;;;18.70;78.90;;;;;;5354146;26;20345;-74
2024/04/12 00:09:25;;;;;;;5.18;2.45;;;18.70;79.00;;;;;;5383203;26;20000;-76
2024/04/12 00:11:55;;;;;;;7.05;2.97;;;18.70;79.20;;;;;;5382898;26;20348;-73
2024/04/12 00:14:22;;;;;;;7.97;2.60;;;18.60;79.40;;;;;;5381578;26;20344;-75
2024/04/12 00:16:52;;;;;;;5.15;2.50;;;18.60;79.90;;;;;;5383022;26;20000;-74
2024/04/12 00:19:22;;;;;;;5.22;2.75;;;18.60;79.60;;;;;;5382640;26;20000;-73
2024/04/12 00:21:55;;;;;;;4.78;2.60;;;18.50;79.50;;;;;;5382365;26;20012;-73
2024/04/12 00:24:25;;;;;;;6.60;2.90;;;18.50;80.00;;;;;;5382481;26;19996;-75
2024/04/12 00:26:53;;;;;;;5.82;2.83;;;18.50;79.60;;;;;;5383282;26;20010;-73
2024/04/12 00:29:30;;;;;;;7.47;2.70;;;18.50;79.60;;;;;;5382782;26;20001;-76
2024/04/12 00:32:13;;;;;;;4.65;2.45;;;18.40;79.40;;;;;;5382175;26;20402;-72
2024/04/12 00:35:00;;;;;;;4.95;2.35;;;18.40;79.60;;;;;;5382732;26;20015;-74
2024/04/12 00:55:14;;;;;;;5.28;2.90;;;18.20;81.40;;;;;;5018289;28;20018;-73
2024/04/12 00:57:59;;;;;;;4.03;2.47;;;18.10;82.60;;;;;;4934002;28;20171;-76
2024/04/12 01:04:07;;;;;;;5.55;2.45;;;18.10;82.50;;;;;;4977290;28;20140;-73
2024/04/12 01:06:33;;;;;;;5.07;2.80;;;18.10;82.50;;;;;;5191247;27;20433;-75
2024/04/12 01:09:10;;;;;;;5.88;2.47;;;18.10;82.80;;;;;;5333388;26;20070;-74
2024/04/12 01:11:37;;;;;;;4.10;2.10;;;18.00;82.90;;;;;;5381774;26;20010;-74
2024/04/12 01:14:05;;;;;;;9.00;3.00;;;18.10;83.00;;;;;;5381740;26;20011;-76
2024/04/12 01:16:31;;;;;;;11.43;2.58;;;18.10;83.10;;;;;;5382422;26;20028;-75
2024/04/12 01:18:57;;;;;;;6.75;3.03;;;18.00;82.40;;;;;;5381853;26;20081;-73
2024/04/12 01:21:26;;;;;;;5.70;2.67;;;17.90;82.50;;;;;;5381555;26;20000;-74
2024/04/12 01:23:55;;;;;;;3.35;2.15;;;17.90;82.70;;;;;;5350280;26;20336;-74
2024/04/12 01:26:23;;;;;;;5.65;2.30;;;17.90;82.90;;;;;;5381273;26;20357;-73
2024/04/12 01:28:51;;;;;;;3.03;2.13;;;18.00;83.20;;;;;;5381206;26;20046;-73
2024/04/12 01:31:18;;;;;;;8.38;2.78;;;18.00;83.20;;;;;;5381642;26;20522;-71
2024/04/12 01:33:49;;;;;;;5.85;2.42;;;18.00;83.10;;;;;;5381923;26;20019;-73
2024/04/12 01:36:19;;;;;;;9.43;2.40;;;18.00;83.10;;;;;;5381539;26;20421;-76
2024/04/12 01:38:57;;;;;;;6.47;2.22;;;18.00;82.90;;;;;;5381708;26;19996;-73
2024/04/12 01:41:33;;;;;;;4.82;2.10;;;17.90;82.50;;;;;;5381647;26;20513;-74
2024/04/12 01:44:04;;;;;;;4.38;2.28;;;17.90;82.80;;;;;;5381927;26;20332;-77
2024/04/12 01:46:34;;;;;;;6.72;2.03;;;17.90;82.70;;;;;;5381891;26;20015;-78
2024/04/12 01:49:10;;;;;;;6.38;2.30;;;17.90;82.90;;;;;;5381619;26;20000;-77
2024/04/12 01:51:41;;;;;;;5.32;2.38;;;17.90;83.30;;;;;;5381646;26;20036;-78
2024/04/12 01:54:14;;;;;;;7.65;2.35;;;17.80;82.80;;;;;;5381565;26;20448;-75
2024/04/12 01:56:47;;;;;;;;;;;17.80;83.00;;;;;;5382546;26;20000;-78
2024/04/12 01:59:21;;;;;;;6.80;2.63;;;17.80;83.30;;;;;;5381453;26;20286;-77
2024/04/12 02:01:52;;;;;;;4.35;2.38;;;17.80;83.10;;;;;;5381411;26;20015;-75
2024/04/12 02:04:18;;;;;;;8.52;2.65;;;17.70;83.20;;;;;;5381661;26;20439;-74
2024/04/12 02:06:48;;;;;;;5.60;2.45;;;17.80;83.50;;;;;;5382563;26;20027;-76
2024/04/12 02:09:19;;;;;;;12.05;2.63;;;17.70;83.80;;;;;;5382115;26;20386;-74
2024/04/12 02:11:46;;;;;;;8.35;2.45;;;17.70;83.90;;;;;;5382523;26;20395;-75
2024/04/12 02:14:12;;;;;;;10.35;2.40;;;17.70;83.70;;;;;;5382012;26;20000;-74
2024/04/12 02:27:35;;;;;;;7.43;2.58;;;17.60;84.10;;;;;;5275765;27;20050;-74
2024/04/12 02:37:35;;;;;;;9.93;2.83;;;17.50;84.10;;;;;;5266335;26;20437;-75
2024/04/12 02:41:00;;;;;;;7.82;2.75;;;17.50;85.00;;;;;;5274596;27;20013;-76
2024/04/12 02:43:29;;;;;;;6.70;3.05;;;17.40;85.00;;;;;;5282682;27;20135;-76
2024/04/12 02:45:59;;;;;;;6.65;2.30;;;17.40;85.40;;;;;;5308870;27;20361;-73
2024/04/12 02:48:25;;;;;;;8.50;2.30;;;17.40;85.40;;;;;;5315155;26;20400;-74
2024/04/12 02:50:59;;;;;;;6.63;2.75;;;17.30;85.40;;;;;;5380728;26;20000;-73
2024/04/12 02:53:26;;;;;;;6.03;2.72;;;17.30;85.60;;;;;;5380555;26;20011;-72
2024/04/12 02:56:04;;;;;;;6.85;2.45;;;17.30;85.80;;;;;;5381063;26;20014;-76
2024/04/12 02:58:51;;;;;;;4.18;2.45;;;17.30;85.50;;;;;;5349889;26;20019;-76
2024/04/12 03:01:24;;;;;;;8.32;2.40;;;17.40;85.70;;;;;;5380284;26;20028;-77
2024/04/12 03:03:58;;;;;;;5.90;2.67;;;17.40;85.60;;;;;;5380603;26;20330;-75
2024/04/12 03:06:31;;;;;;;7.47;2.72;;;17.30;85.90;;;;;;5380576;26;20439;-76
2024/04/12 03:09:00;;;;;;;8.68;2.47;;;17.30;85.40;;;;;;5380932;26;20031;-77
2024/04/12 03:11:34;;;;;;;5.93;2.67;;;17.40;85.70;;;;;;5380860;26;20008;-76
2024/04/12 03:14:12;;;;;;;3.72;2.35;;;17.40;85.70;;;;;;5380827;26;20000;-76
2024/04/12 03:16:42;;;;;;;11.35;3.08;;;17.30;85.80;;;;;;5380688;26;20386;-76
2024/04/12 03:19:14;;;;;;;6.45;2.78;;;17.30;85.90;;;;;;5350090;26;20006;-76
2024/04/12 03:21:43;;;;;;;5.65;2.28;;;17.30;86.10;;;;;;5380919;26;20448;-76
2024/04/12 03:24:09;;;;;;;7.22;2.85;;;17.30;86.40;;;;;;5380618;26;20359;-74
2024/04/12 03:26:36;;;;;;;5.68;2.40;;;17.20;86.10;;;;;;5380301;26;20471;-76
2024/04/12 03:29:08;;;;;;;14.27;2.45;;;17.10;86.00;;;;;;5349094;26;20011;-75
2024/04/12 03:31:40;;;;;;;10.60;3.28;;;17.10;85.90;;;;;;5380638;26;20441;-77
2024/04/12 03:34:07;;;;;;;5.70;2.63;;;17.10;86.30;;;;;;5380166;26;20008;-75
2024/04/12 03:41:46;;;;;;;8.30;2.70;;;17.10;86.40;;;;;;5380325;26;20004;-74
2024/04/12 03:44:13;;;;;;;4.88;2.45;;;17.10;86.60;;;;;;5380701;26;20004;-74
2024/04/12 03:46:40;;;;;;;6.18;2.78;;;17.10;86.60;;;;;;5379880;26;20045;-73
2024/04/12 03:49:13;;;;;;;4.35;2.55;;;17.00;86.40;;;;;;5382342;26;20438;-77
2024/04/12 03:51:46;;;;;;;5.40;2.47;;;17.00;86.70;;;;;;5384396;26;20414;-76
2024/04/12 03:54:21;;;;;;;5.78;2.72;;;17.00;86.80;;;;;;5384273;26;20030;-76
2024/04/12 03:56:49;;;;;;;6.82;2.80;;;17.00;87.00;;;;;;5383501;26;20015;-77
2024/04/12 04:20:07;;;;;;;8.63;3.58;;;16.80;87.20;;;;;;5049528;28;20157;-76
2024/04/12 04:23:24;;;;;;;10.52;3.05;;;16.80;87.60;;;;;;5048768;28;21140;-76
2024/04/12 04:26:10;;;;;;;8.25;3.05;;;16.80;88.00;;;;;;4986775;28;20458;-75
2024/04/12 04:28:37;;;;;;;9.35;2.85;;;16.80;88.10;;;;;;5048472;28;20003;-77
2024/04/12 04:31:06;;;;;;;4.93;2.70;;;16.80;88.40;;;;;;5248645;27;20024;-75
2024/04/12 04:33:38;;;;;;;7.15;3.17;;;16.80;88.40;;;;;;5342389;26;20016;-76
2024/04/12 04:36:11;;;;;;;;;;;16.80;88.60;;;;;;5348288;26;20019;-77
2024/04/12 04:38:41;;;;;;;9.95;3.05;;;16.80;88.80;;;;;;5348068;26;19938;-76
2024/04/12 04:41:07;;;;;;;9.05;2.78;;;16.80;88.90;;;;;;5346981;26;20016;-75
2024/04/12 04:43:33;;;;;;;7.22;2.67;;;16.80;88.70;;;;;;5347487;26;20354;-74
2024/04/12 04:46:25;;;;;;;6.93;2.42;;;16.70;88.70;;;;;;5347429;26;20368;-73
2024/04/12 04:48:45;;;;;;;5.28;2.42;;;16.70;88.20;;;;;;5347061;26;20082;-76
2024/04/12 04:51:11;;;;;;;7.43;2.97;;;16.70;88.40;;;;;;5348051;26;20449;-77
2024/04/12 04:53:37;;;;;;;7.50;3.05;;;16.60;88.60;;;;;;5347491;26;20005;-75
2024/04/12 04:56:05;;;;;;;6.72;2.67;;;16.70;89.80;;;;;;5346944;26;20005;-74
2024/04/12 04:58:34;;;;;;;5.40;2.53;;;16.60;89.20;;;;;;5345234;26;20419;-74
2024/04/12 05:01:01;;;;;;;7.40;3.05;;;16.60;89.40;;;;;;5352802;26;20330;-74
2024/04/12 05:03:28;;;;;;;10.07;3.03;;;16.60;89.70;;;;;;5382048;26;20008;-73
2024/04/12 05:05:53;;;;;;;9.15;3.00;;;16.70;90.00;;;;;;5382220;26;19992;-72
2024/04/12 05:08:23;;;;;;;5.28;2.67;;;16.70;90.20;;;;;;5381981;26;20076;-76
2024/04/12 05:10:52;;;;;;;8.32;3.20;;;16.60;90.40;;;;;;5381333;26;20407;-78
2024/04/12 05:13:18;;;;;;;6.70;2.78;;;16.70;90.50;;;;;;5381185;26;20015;-76
2024/04/12 05:18:12;;;;;;;6.75;3.15;;;16.70;90.60;;;;;;5382388;26;20012;-77
2024/04/12 05:20:39;;;;;;;8.48;2.95;;;16.70;90.80;;;;;;5381659;26;20004;-76
2024/04/12 05:23:11;;;;;;;9.02;3.08;;;16.70;91.00;;;;;;5381621;26;20004;-78
2024/04/12 05:25:40;;;;;;;5.93;3.47;;;16.70;91.20;;;;;;5381365;26;20010;-77
2024/04/12 05:28:06;;;;;;;15.25;3.20;;;16.70;91.20;;;;;;5381541;26;20004;-73
2024/04/12 05:30:36;;;;;;;8.07;3.53;;;16.70;91.30;;;;;;5381769;26;20008;-77
2024/04/12 05:33:05;;;;;;;9.27;4.22;;;16.60;91.20;;;;;;5381771;26;20325;-76
2024/04/12 05:35:31;;;;;;;15.77;4.70;;;16.70;91.50;;;;;;5381684;26;20004;-76
2024/04/12 05:38:07;;;;;;;13.25;3.63;;;16.70;91.30;;;;;;5381240;26;20019;-77
2024/04/12 05:41:00;;;;;;;14.20;3.85;;;16.70;91.40;;;;;;5380288;26;20345;-77
2024/04/12 05:47:59;;;;;;;15.85;3.75;;;16.70;91.90;;;;;;5233201;26;20001;-71
2024/04/12 05:51:32;;;;;;;13.70;4.40;;;16.80;92.30;;;;;;5175010;27;20030;-70
2024/04/12 05:54:33;;;;;;;;;;;;;;;;;;;;;
2024/04/12 05:57:32;;;;;;;9.60;3.72;;;16.80;92.50;;;;;;5148810;27;20012;-71
2024/04/12 06:02:31;;;;;;;13.93;3.83;;;16.90;92.70;;;;;;5352832;21;20344;-70
2024/04/12 06:05:23;;;;;;;10.55;3.03;;;16.90;92.60;;;;;;5346229;26;20015;-71
2024/04/12 06:11:58;;;;;;;7.97;3.15;;;17.00;92.20;;;;;;5239887;27;20018;-71
2024/04/12 06:15:08;;;;;;;;;;;;;;;;;;;;;
2024/04/12 06:17:45;;;;;;;6.78;2.70;;;17.10;93.10;;;;;;5143517;27;20058;-70
2024/04/12 06:23:29;;;;;;;16.13;3.83;;;17.20;93.40;;;;;;5189503;27;19999;-71
2024/04/12 06:29:16;;;;;;;10.40;2.60;;;17.40;93.20;;;;;;5186108;27;20017;-70
2024/04/12 06:31:45;;;;;;;6.78;2.65;;;17.40;92.50;;;;;;5241110;27;20003;-72
2024/04/12 06:34:17;;;;;;;8.70;2.45;;;17.50;92.20;;;;;;5245102;26;20054;-71
2024/04/12 06:36:56;;;;;;;6.25;2.45;;;17.60;92.10;;;;;;5345763;26;20015;-71
2024/04/12 06:39:26;;;;;;;19.63;2.97;;;17.70;91.60;;;;;;5346043;26;20016;-71
2024/04/12 06:42:04;;;;;;;12.25;2.80;;;17.70;91.30;;;;;;5315384;26;20005;-72
2024/04/12 06:44:31;;;;;;;8.85;2.50;;;17.80;90.90;;;;;;5344872;26;20005;-71
2024/04/12 06:47:00;;;;;;;9.50;2.58;;;17.90;90.40;;;;;;5345892;26;20329;-71
2024/04/12 06:49:27;;;;;;;9.57;2.20;;;17.90;90.00;;;;;;5345481;26;20336;-71
2024/04/12 06:54:46;;;;;;;5.53;2.00;;;18.00;88.60;;;;;;5345064;26;20020;-72
2024/04/12 06:57:18;;;;;;;5.53;1.90;;;18.10;88.40;;;;;;5314405;26;20023;-72
2024/04/12 06:59:47;;;;;;;4.70;2.20;;;18.20;87.90;;;;;;5344922;26;20028;-71
2024/04/12 07:02:14;;;;;;;10.93;2.03;;;18.30;86.50;;;;;;5345139;26;20005;-72
2024/04/12 07:04:40;;;;;;;7.93;1.95;;;18.20;86.80;;;;;;5344474;26;20078;-71
2024/04/12 07:07:06;;;;;;;9.05;1.98;;;18.30;87.40;;;;;;5345114;26;20009;-72
2024/04/12 07:09:32;;;;;;;4.70;1.98;;;18.30;87.00;;;;;;5344691;26;20016;-71
2024/04/12 07:12:02;;;;;;;8.80;1.80;;;18.40;86.30;;;;;;5344991;26;20083;-71
2024/04/12 07:14:29;;;;;;;6.72;2.72;;;18.40;85.60;;;;;;5345038;26;20082;-70
2024/04/12 07:16:56;;;;;;;10.82;3.03;;;18.50;85.00;;;;;;5345637;26;20008;-70
2024/04/12 07:19:23;;;;;;;5.15;2.05;;;18.50;84.80;;;;;;5345234;26;20009;-71
2024/04/12 07:21:54;;;;;;;5.97;2.35;;;18.60;85.00;;;;;;5314707;26;20441;-71
2024/04/12 07:24:23;;;;;;;9.75;2.10;;;18.60;84.60;;;;;;5289099;26;20001;-71
2024/04/12 07:26:49;;;;;;;8.55;2.33;;;18.70;84.30;;;;;;5348800;26;20005;-71
2024/04/12 07:29:15;;;;;;;11.40;3.03;;;18.70;84.00;;;;;;5348612;26;20479;-71
2024/04/12 07:31:42;;;;;;;6.93;2.17;;;18.80;81.80;;;;;;5348493;26;20005;-71
2024/04/12 07:34:08;;;;;;;9.18;1.95;;;18.80;81.70;;;;;;5348712;26;20079;-71
2024/04/12 07:36:35;;;;;;;6.63;1.90;;;18.90;81.50;;;;;;5318557;26;20008;-71
2024/04/12 07:39:07;;;;;;;11.43;2.40;;;18.90;82.20;;;;;;5348816;26;19997;-71
2024/04/12 07:41:45;;;;;;;6.07;1.98;;;19.00;82.30;;;;;;5349190;26;20000;-71
2024/04/12 07:44:13;;;;;;;9.07;2.00;;;19.00;82.70;;;;;;5348775;26;20005;-71
2024/04/12 07:58:09;;;;;;;;;;;;;;;;;;;;;
2024/04/12 08:07:38;;;;;;;10.52;1.83;;;19.40;80.70;;;;;;5145387;27;20009;-73
2024/04/12 08:13:23;;;;;;;11.43;2.65;;;19.50;80.40;;;;;;5144720;27;20052;-71
2024/04/12 08:15:50;;;;;;;7.45;2.03;;;19.60;79.20;;;;;;5177230;27;20329;-72
2024/04/12 08:18:20;;;;;;;5.72;2.05;;;19.70;79.30;;;;;;5199860;26;20075;-71
2024/04/12 08:20:46;;;;;;;5.78;2.38;;;19.70;79.50;;;;;;5318072;26;20322;-71
2024/04/12 08:23:17;;;;;;;9.18;2.42;;;19.80;80.00;;;;;;5347881;26;20000;-71
2024/04/12 08:25:48;;;;;;;14.65;2.10;;;19.80;79.30;;;;;;5347243;26;20004;-71
2024/04/12 08:28:16;;;;;;;6.00;2.20;;;19.80;78.60;;;;;;5347931;26;20128;-71
2024/04/12 08:30:51;;;;;;;8.35;2.08;;;19.90;78.70;;;;;;5348158;26;20004;-71
2024/04/12 08:33:24;;;;;;;9.93;1.90;;;19.90;77.10;;;;;;5347993;26;20328;-71
2024/04/12 08:35:55;;;;;;;5.60;1.90;;;20.00;76.80;;;;;;5347188;26;20078;-72
2024/04/12 08:38:24;;;;;;;4.20;2.13;;;20.00;76.00;;;;;;5348138;26;20000;-71
2024/04/12 08:40:57;;;;;;;6.03;2.03;;;20.10;75.70;;;;;;5348236;26;20515;-71
2024/04/12 08:43:41;;;;;;;6.38;2.35;;;20.10;75.60;;;;;;5347803;26;19997;-71
2024/04/12 08:46:17;;;;;;;7.55;1.83;;;20.20;76.70;;;;;;5322465;26;20001;-72
2024/04/12 08:48:46;;;;;;;10.77;2.38;;;20.20;76.70;;;;;;5348047;26;20017;-72
2024/04/12 08:51:21;;;;;;;6.03;2.22;;;20.20;77.60;;;;;;5347932;26;20364;-71
2024/04/12 08:53:55;;;;;;;7.20;2.40;;;20.30;78.40;;;;;;5347584;26;20469;-72
2024/04/12 08:56:23;;;;;;;9.45;1.92;;;20.30;78.40;;;;;;5347688;26;20011;-77
2024/04/12 08:58:52;;;;;;;7.57;2.00;;;20.40;78.90;;;;;;5347877;26;20015;-76
2024/04/12 09:01:24;;;;;;;10.48;2.28;;;20.40;77.10;;;;;;5347334;26;20001;-77
2024/04/12 09:03:53;;;;;;;11.68;2.25;;;20.50;77.10;;;;;;5347894;26;20001;-76
2024/04/12 09:06:23;;;;;;;9.88;2.15;;;20.50;76.00;;;;;;5347889;26;20001;-76
2024/04/12 09:08:53;;;;;;;3.67;2.20;;;20.60;76.50;;;;;;5347593;26;19997;-77
2024/04/12 09:11:25;;;;;;;7.13;2.10;;;20.60;75.90;;;;;;5347881;26;20001;-75
2024/04/12 09:13:53;;;;;;;7.05;2.88;;;20.70;77.60;;;;;;5347824;26;20016;-75
2024/04/12 09:16:20;;;;;;;9.27;2.58;;;20.70;76.00;;;;;;5348068;26;20015;-71
2024/04/12 09:18:50;;;;;;;7.90;2.67;;;20.70;75.80;;;;;;5347797;26;20008;-71
2024/04/12 09:21:24;;;;;;;9.55;2.50;;;20.80;76.20;;;;;;5348133;26;20345;-71
2024/04/12 09:23:56;;;;;;;7.97;2.33;;;20.90;75.90;;;;;;5348174;26;20005;-71
2024/04/12 09:26:22;;;;;;;;;;;20.90;74.70;;;;;;5348847;26;20001;-70
2024/04/12 09:36:15;;;;;;;6.25;2.58;;;21.00;73.50;;;;;;5209622;27;20010;-71
2024/04/12 10:37:36;;;;;;;4.07;2.03;;;22.00;66.90;;;;;;5346305;26;20526;-71
2024/04/12 10:40:04;;;;;;;6.72;2.50;;;22.00;66.60;;;;;;5346419;26;20082;-72
2024/04/12 10:42:31;;;;;;;11.30;3.65;;;22.10;66.40;;;;;;5346395;26;20016;-71
2024/04/12 10:45:02;;;;;;;13.73;3.08;;;22.20;66.50;;;;;;5346725;26;20004;-71
2024/04/12 10:47:28;;;;;;;8.98;2.65;;;22.20;67.60;;;;;;5346665;26;20317;-71
2024/04/12 10:49:57;;;;;;;10.52;2.55;;;22.30;66.50;;;;;;5346567;26;20000;-70
2024/04/12 10:52:28;;;;;;;7.88;2.47;;;22.30;67.60;;;;;;5346625;26;20008;-71
2024/04/12 10:54:58;;;;;;;6.38;2.30;;;22.30;66.50;;;;;;5346207;26;20001;-71
2024/04/12 10:57:24;;;;;;;4.82;2.17;;;22.40;65.40;;;;;;5345622;26;19997;-70
2024/04/12 10:59:51;;;;;;;6.80;2.40;;;22.40;65.00;;;;;;5348635;26;20020;-70
2024/04/12 11:02:18;;;;;;;5.80;2.60;;;22.40;64.50;;;;;;5349305;26;20033;-71
2024/04/12 11:07:29;;;;;;;11.48;2.88;;;22.50;64.20;;;;;;5349783;26;20016;-70
2024/04/12 11:09:57;;;;;;;8.25;2.67;;;22.50;64.50;;;;;;5350086;26;20052;-71
2024/04/12 11:13:26;;;;;;;;;;;;;;;;;;;;;
2024/04/12 11:33:04;;;;;;;13.73;2.50;;;22.90;64.60;;;;;;5349717;26;20363;-71
2024/04/12 11:36:21;;;;;;;9.85;2.50;;;22.90;65.10;;;;;;5349057;26;20033;-71
2024/04/12 11:38:49;;;;;;;9.02;2.58;;;23.00;65.90;;;;;;5285678;26;20342;-71
2024/04/12 11:41:16;;;;;;;10.13;2.80;;;23.00;67.20;;;;;;5345754;26;20020;-71
2024/04/12 11:43:45;;;;;;;13.30;2.90;;;23.10;65.60;;;;;;5345318;26;20341;-71
2024/04/12 11:46:16;;;;;;;12.93;2.83;;;23.10;64.40;;;;;;5348621;26;20389;-71
2024/04/12 11:48:43;;;;;;;9.32;2.63;;;23.10;64.20;;;;;;5318132;26;20374;-71
2024/04/12 11:51:15;;;;;;;7.57;3.20;;;23.20;65.70;;;;;;5349091;26;20001;-71
2024/04/12 11:53:44;;;;;;;7.85;2.33;;;23.20;65.10;;;;;;5348540;26;20005;-71
2024/04/12 11:56:10;;;;;;;16.13;2.53;;;23.30;64.80;;;;;;5349157;26;20001;-71
2024/04/12 11:58:36;;;;;;;6.43;2.45;;;23.30;65.20;;;;;;5348358;26;20339;-71
2024/04/12 12:01:05;;;;;;;7.82;2.90;;;23.40;63.80;;;;;;5347587;26;19997;-71
2024/04/12 12:03:31;;;;;;;4.13;2.40;;;23.40;64.70;;;;;;5345858;26;20001;-72
2024/04/12 12:06:06;;;;;;;7.03;3.05;;;23.40;64.30;;;;;;5348527;26;20001;-71
2024/04/12 12:08:41;;;;;;;8.40;2.70;;;23.40;64.20;;;;;;5348957;26;20016;-71
2024/04/12 12:11:10;;;;;;;7.45;2.80;;;23.50;64.20;;;;;;5347210;26;19997;-71
2024/04/12 12:13:36;;;;;;;12.73;2.92;;;23.50;64.50;;;;;;5348653;26;20388;-71
2024/04/12 12:16:05;;;;;;;8.00;2.75;;;23.50;63.10;;;;;;5348398;26;20012;-72
2024/04/12 12:18:35;;;;;;;7.75;2.70;;;23.50;63.00;;;;;;5348484;26;20013;-72
2024/04/12 12:21:01;;;;;;;12.95;2.85;;;23.60;63.20;;;;;;5348717;26;20037;-77
2024/04/12 12:23:27;;;;;;;9.77;2.83;;;23.70;62.90;;;;;;5348475;26;20019;-76
2024/04/12 12:25:53;;;;;;;5.95;2.30;;;23.70;63.10;;;;;;5348748;26;20005;-76
2024/04/12 12:28:19;;;;;;;9.95;2.80;;;23.70;63.50;;;;;;5348404;26;20004;-77
2024/04/12 12:30:54;;;;;;;8.18;2.42;;;23.70;63.00;;;;;;5348047;26;20040;-76
2024/04/12 12:33:23;;;;;;;6.65;2.70;;;23.80;63.90;;;;;;5348413;26;20016;-75
2024/04/12 12:35:50;;;;;;;8.73;2.70;;;23.80;62.10;;;;;;5348240;26;20001;-77
2024/04/12 12:38:16;;;;;;;11.48;2.42;;;23.80;61.60;;;;;;5348219;26;20004;-76
2024/04/12 12:40:42;;;;;;;8.40;2.80;;;23.80;62.00;;;;;;5348230;26;20037;-73
2024/04/12 12:43:10;;;;;;;9.20;2.65;;;23.90;61.60;;;;;;5348007;26;20016;-70
2024/04/12 12:45:37;;;;;;;10.77;2.60;;;23.90;61.70;;;;;;5348457;26;20011;-71
2024/04/12 12:48:03;;;;;;;7.95;2.63;;;23.90;61.20;;;;;;5318335;26;20326;-70
2024/04/12 12:50:29;;;;;;;7.75;2.33;;;24.00;61.20;;;;;;5348877;26;20358;-71
2024/04/12 12:53:02;;;;;;;8.73;3.25;;;24.00;61.80;;;;;;5348438;26;20005;-72
2024/04/12 12:56:20;;;;;;;6.78;2.42;;;24.00;61.20;;;;;;5348776;26;20345;-71
2024/04/12 13:13:50;;;;;;;6.07;2.60;;;24.20;59.90;;;;;;4988179;28;20078;-71
2024/04/12 13:16:50;;;;;;;8.07;2.85;;;24.20;59.30;;;;;;5018049;28;20011;-71
2024/04/12 13:19:42;;;;;;;7.10;3.00;;;24.30;60.10;;;;;;5080466;28;20002;-70
2024/04/12 13:22:11;;;;;;;5.47;2.60;;;24.30;60.30;;;;;;5054234;28;20010;-71
2024/04/12 13:24:38;;;;;;;5.97;2.35;;;24.30;59.70;;;;;;5082527;27;20368;-71
2024/04/12 13:27:07;;;;;;;9.30;2.60;;;24.40;59.50;;;;;;5313583;27;20097;-71
2024/04/12 13:29:34;;;;;;;10.00;2.33;;;24.40;59.20;;;;;;5313247;27;19998;-71
2024/04/12 13:32:00;;;;;;;4.57;2.55;;;24.40;59.70;;;;;;5312896;27;20388;-71
2024/04/12 13:34:26;;;;;;;9.57;2.20;;;24.40;58.40;;;;;;5312980;27;20319;-71
2024/04/12 13:36:53;;;;;;;7.78;2.58;;;24.50;58.40;;;;;;5313101;27;20337;-71
2024/04/12 13:39:19;;;;;;;9.40;2.22;;;24.50;59.00;;;;;;5282990;27;20491;-71
2024/04/12 13:41:45;;;;;;;5.75;2.50;;;24.50;58.10;;;;;;5312871;27;20004;-71
2024/04/12 13:44:25;;;;;;;6.32;2.30;;;24.50;58.40;;;;;;5312593;27;19998;-71
2024/04/12 13:52:23;;;;;;;7.55;3.17;;;24.60;57.30;;;;;;5313012;27;20090;-72
2024/04/12 13:54:50;;;;;;;8.70;2.45;;;24.60;58.30;;;;;;5312754;27;20556;-71
2024/04/12 13:57:17;;;;;;;13.65;2.55;;;24.60;57.40;;;;;;5312522;27;20006;-71
2024/04/12 13:59:44;;;;;;;9.27;2.20;;;24.60;58.30;;;;;;5312817;27;19998;-71
2024/04/12 14:02:10;;;;;;;8.45;2.63;;;24.60;58.10;;;;;;5312255;26;20082;-72
2024/04/12 14:04:38;;;;;;;10.82;2.33;;;24.70;58.10;;;;;;5312932;27;20635;-71
2024/04/12 14:07:04;;;;;;;7.55;2.70;;;24.70;58.20;;;;;;5312445;27;20006;-71
2024/04/12 14:09:30;;;;;;;4.47;2.13;;;24.70;57.20;;;;;;5312617;27;20038;-70
2024/04/12 14:11:56;;;;;;;7.10;2.53;;;24.70;58.40;;;;;;5312034;27;20001;-71
2024/04/12 14:14:23;;;;;;;3.40;1.85;;;24.70;58.30;;;;;;5312420;27;20005;-71
2024/04/12 14:16:51;;;;;;;3.10;2.00;;;24.70;58.30;;;;;;5312055;27;20002;-71
2024/04/12 14:19:17;;;;;;;7.10;2.15;;;24.80;57.90;;;;;;5312283;27;20017;-71
2024/04/12 14:21:48;;;;;;;8.38;2.47;;;24.70;57.70;;;;;;5312601;27;20014;-71
2024/04/12 14:27:03;;;;;;;12.15;2.47;;;24.80;58.10;;;;;;5313021;27;20012;-71
2024/04/12 14:29:32;;;;;;;9.55;2.80;;;24.80;58.30;;;;;;5312800;27;20006;-71
2024/04/12 14:32:05;;;;;;;7.38;2.33;;;24.80;57.70;;;;;;5311935;27;20337;-71
2024/04/12 14:34:52;;;;;;;9.00;2.25;;;24.80;58.50;;;;;;5311647;27;20016;-71
2024/04/12 14:44:45;;;;;;;8.05;2.20;;;24.80;58.10;;;;;;5241946;27;20014;-71
2024/04/12 14:58:03;;;;;;;8.20;2.47;;;24.90;57.10;;;;;;5175223;27;20053;-70
2024/04/12 15:50:26;;;;;;;6.20;2.40;;;24.90;56.60;;;;;;5314426;26;20005;-77
2024/04/12 16:10:42;;;;;;;6.22;2.50;;;24.90;56.10;;;;;;5314545;26;20016;-77
2024/04/12 16:12:10;;;;;;;5.20;2.20;;;24.90;56.80;;;;;;5314929;26;20067;-71
2024/04/12 16:14:36;;;;;;;7.43;2.60;;;24.90;57.00;;;;;;5314698;26;20084;-71
2024/04/12 16:17:20;;;;;;;7.13;2.60;;;24.90;56.40;;;;;;5314821;26;20341;-71
2024/04/12 16:33:51;;;;;;;8.90;2.60;;;24.80;59.50;;;;;;5113085;27;20086;-71
2024/04/12 16:39:48;;;;;;;11.38;2.80;;;24.80;58.70;;;;;;5080573;28;20068;-71
2024/04/12 16:45:50;;;;;;;10.35;2.70;;;24.80;59.60;;;;;;5056681;27;20348;-71
2024/04/12 16:48:16;;;;;;;11.98;2.50;;;24.80;59.80;;;;;;5144844;27;20359;-72
2024/04/12 16:50:42;;;;;;;8.13;2.60;;;24.80;59.60;;;;;;5276821;26;20056;-71
2024/04/12 16:53:10;;;;;;;10.85;2.90;;;24.70;58.80;;;;;;5313734;26;20002;-72
2024/04/12 16:55:36;;;;;;;12.82;3.00;;;24.80;59.60;;;;;;5282407;27;20012;-71
2024/04/12 16:58:04;;;;;;;10.15;2.50;;;24.70;60.70;;;;;;5313584;27;20030;-72
2024/04/12 17:00:30;;;;;;;9.18;2.90;;;24.80;61.30;;;;;;5283321;27;19998;-71
2024/04/12 17:02:56;;;;;;;10.35;2.40;;;24.70;61.60;;;;;;5313451;26;20013;-71
2024/04/12 17:05:22;;;;;;;10.68;2.80;;;24.70;61.90;;;;;;5313726;26;20001;-72
2024/04/12 17:07:48;;;;;;;11.90;2.78;;;24.70;62.30;;;;;;5282958;27;19993;-72
2024/04/12 17:10:14;;;;;;;10.65;2.83;;;24.70;62.60;;;;;;5313159;26;19998;-72
2024/04/12 17:12:41;;;;;;;7.32;3.20;;;24.70;63.20;;;;;;5313330;26;20318;-72
2024/04/12 17:15:08;;;;;;;10.40;2.90;;;24.70;63.60;;;;;;5313389;26;19997;-71
2024/04/12 17:17:36;;;;;;;8.55;2.63;;;24.60;63.60;;;;;;5313243;26;20001;-71
2024/04/12 17:20:06;;;;;;;4.90;2.90;;;24.60;63.70;;;;;;5312966;26;20481;-71
2024/04/12 17:22:32;;;;;;;7.97;2.70;;;24.60;64.00;;;;;;5313395;26;20001;-71
2024/04/12 17:24:58;;;;;;;6.65;3.00;;;24.50;64.30;;;;;;5313356;26;20016;-71
2024/04/12 17:27:24;;;;;;;11.65;2.90;;;24.50;65.00;;;;;;5313217;26;20029;-72
2024/04/12 17:29:50;;;;;;;11.00;2.90;;;24.50;65.90;;;;;;5282865;26;20013;-71
2024/04/12 17:32:17;;;;;;;9.95;2.83;;;24.40;65.60;;;;;;5313192;26;20449;-71
2024/04/12 17:34:43;;;;;;;6.72;2.85;;;24.40;65.90;;;;;;5313428;26;20005;-71
2024/04/12 17:37:09;;;;;;;8.18;3.10;;;24.40;66.50;;;;;;5311568;26;20016;-72
2024/04/12 17:39:35;;;;;;;7.80;3.30;;;24.30;66.60;;;;;;5313246;26;20014;-71
2024/04/12 17:42:01;;;;;;;9.00;3.33;;;24.20;66.70;;;;;;5332886;26;20004;-71
2024/04/12 17:44:27;;;;;;;8.88;3.15;;;24.20;66.70;;;;;;5347119;26;20015;-71
2024/04/12 17:46:56;;;;;;;13.68;3.17;;;24.10;66.80;;;;;;5347607;26;20037;-71
2024/04/12 17:49:22;;;;;;;8.93;2.72;;;24.10;66.90;;;;;;5347468;26;20079;-71
2024/04/12 17:51:49;;;;;;;8.07;3.15;;;24.10;67.00;;;;;;5317538;26;19997;-71
2024/04/12 17:54:15;;;;;;;8.77;3.25;;;24.10;66.90;;;;;;5347482;26;20015;-71
2024/04/12 17:56:41;;;;;;;7.38;3.35;;;24.00;66.70;;;;;;5348055;26;20005;-71
2024/04/12 17:59:10;;;;;;;10.63;3.42;;;23.90;66.30;;;;;;5347898;26;20005;-71
2024/04/12 18:21:40;;;;;;;10.57;3.50;;;23.50;68.00;;;;;;5176146;27;20061;-71
2024/04/12 18:26:59;;;;;;;9.30;3.25;;;23.40;67.70;;;;;;5175957;27;20075;-71
2024/04/12 18:29:25;;;;;;;14.25;3.50;;;23.40;68.10;;;;;;5241142;27;20379;-71
2024/04/12 18:31:58;;;;;;;7.53;3.70;;;23.40;68.40;;;;;;5259230;26;20403;-72
2024/04/12 18:34:26;;;;;;;8.23;3.47;;;23.30;68.60;;;;;;5346227;26;20052;-71
2024/04/12 18:45:06;;;;;;;8.65;3.20;;;23.20;68.70;;;;;;5346380;26;20086;-71
2024/04/12 18:47:32;;;;;;;10.05;3.30;;;23.10;68.90;;;;;;5346086;26;20346;-71
2024/04/12 18:49:57;;;;;;;9.07;3.42;;;23.10;69.20;;;;;;5346176;26;20008;-72
2024/04/12 18:52:24;;;;;;;7.80;3.33;;;23.00;68.90;;;;;;5346508;26;19997;-71
2024/04/12 18:54:51;;;;;;;10.82;2.95;;;23.00;69.40;;;;;;5345557;26;20501;-72
2024/04/12 18:57:16;;;;;;;10.07;3.20;;;23.00;69.10;;;;;;5346584;26;20014;-72
2024/04/12 18:59:42;;;;;;;6.00;2.90;;;23.00;68.60;;;;;;5346544;26;20001;-72
2024/04/12 19:02:08;;;;;;;7.50;3.00;;;22.90;68.80;;;;;;5346177;26;20016;-70
2024/04/12 19:04:33;;;;;;;7.50;3.03;;;22.90;69.20;;;;;;5346353;26;20017;-72
2024/04/12 19:06:59;;;;;;;10.20;3.50;;;22.80;69.30;;;;;;5346127;26;20048;-71